Time,TemperatureF,DewpointF,PressureIn,WindDirection,WindDirectionDegrees,WindSpeedMPH,WindSpeedGustMPH,Humidity,HourlyPrecipIn,Conditions,Clouds,dailyrainin,SolarRadiationWatts/m^2,SoftwareType,DateUTC
2013-02-21 00:09:00,55.5,51.0,30.09,ESE,117,0.0,1.0,85,0.00,,,0.00,0,weatherlink.com 1.10,2013-02-21 05:09:00,
2013-02-21 00:24:00,55.2,51.0,30.09,ESE,117,0.0,0.0,85,0.00,,,0.00,0,weatherlink.com 1.10,2013-02-21 05:24:00,
2013-02-21 00:39:00,54.7,51.0,30.09,ESE,117,0.0,0.0,87,0.00,,,0.00,0,weatherlink.com 1.10,2013-02-21 05:39:00,
2013-02-21 01:09:00,54.1,51.0,30.09,ESE,117,0.0,0.0,89,0.00,,,0.00,0,weatherlink.com 1.10,2013-02-21 06:09:00,
2013-02-21 01:24:00,53.9,51.0,30.09,ESE,116,0.0,2.0,90,0.00,,,0.00,0,weatherlink.com 1.10,2013-02-21 06:24:00,
2013-02-21 01:40:00,53.9,51.0,30.08,ESE,116,0.0,1.0,91,0.00,,,0.00,0,weatherlink.com 1.10,2013-02-21 06:40:00,
2013-02-21 01:55:00,54.2,51.0,30.08,ENE,61,2.0,4.0,90,0.00,,,0.00,0,weatherlink.com 1.10,2013-02-21 06:55:00,
2013-02-21 02:10:00,54.8,52.0,30.08,NE,49,0.0,3.0,89,0.00,,,0.00,0,weatherlink.com 1.10,2013-02-21 07:10:00,
2013-02-21 02:25:00,55.1,52.0,30.08,NNE,23,0.0,3.0,88,0.00,,,0.00,0,weatherlink.com 1.10,2013-02-21 07:25:00,
2013-02-21 02:40:00,55.1,51.0,30.07,NNE,22,0.0,2.0,87,0.00,,,0.00,0,weatherlink.com 1.10,2013-02-21 07:40:00,
2013-02-21 02:55:00,55.0,51.0,30.07,NNE,26,0.0,2.0,87,0.00,,,0.00,0,weatherlink.com 1.10,2013-02-21 07:55:00,
2013-02-21 03:10:00,54.8,51.0,30.07,NNE,26,0.0,1.0,88,0.00,,,0.00,0,weatherlink.com 1.10,2013-02-21 08:10:00,
2013-02-21 03:25:00,54.8,51.0,30.07,NNE,33,1.0,3.0,87,0.00,,,0.00,0,weatherlink.com 1.10,2013-02-21 08:25:00,
2013-02-21 03:40:00,54.9,51.0,30.07,NE,49,0.0,2.0,86,0.00,,,0.00,0,weatherlink.com 1.10,2013-02-21 08:40:00,
2013-02-21 03:55:00,54.9,51.0,30.07,NNE,33,2.0,4.0,86,0.00,,,0.00,0,weatherlink.com 1.10,2013-02-21 08:55:00,
2013-02-21 04:10:00,55.3,50.0,30.07,NE,47,0.0,4.0,83,0.00,,,0.00,0,weatherlink.com 1.10,2013-02-21 09:10:00,
2013-02-21 04:25:00,55.5,51.0,30.06,NNE,27,1.0,4.0,84,0.00,,,0.00,0,weatherlink.com 1.10,2013-02-21 09:25:00,
2013-02-21 04:40:00,55.7,50.0,30.06,North,349,0.0,3.0,81,0.00,,,0.00,0,weatherlink.com 1.10,2013-02-21 09:40:00,
2013-02-21 04:55:00,56.3,50.0,30.06,North,360,2.0,4.0,80,0.00,,,0.00,0,weatherlink.com 1.10,2013-02-21 09:55:00,
2013-02-21 05:10:00,56.7,51.0,30.07,NE,40,0.0,3.0,80,0.00,,,0.00,0,weatherlink.com 1.10,2013-02-21 10:10:00,
2013-02-21 05:25:00,57.1,51.0,30.07,NNE,25,0.0,2.0,79,0.00,,,0.00,0,weatherlink.com 1.10,2013-02-21 10:25:00,
2013-02-21 05:40:00,57.4,51.0,30.07,North,11,1.0,2.0,79,0.00,,,0.00,0,weatherlink.com 1.10,2013-02-21 10:40:00,
2013-02-21 05:55:00,57.4,51.0,30.08,North,11,0.0,4.0,78,0.00,,,0.00,0,weatherlink.com 1.10,2013-02-21 10:55:00,
2013-02-21 06:10:00,57.3,50.0,30.08,NNE,30,0.0,4.0,77,0.00,,,0.00,0,weatherlink.com 1.10,2013-02-21 11:10:00,
2013-02-21 06:25:00,57.2,50.0,30.08,NNE,30,0.0,1.0,78,0.00,,,0.00,0,weatherlink.com 1.10,2013-02-21 11:25:00,
2013-02-21 06:40:00,56.9,50.0,30.08,NNE,30,0.0,2.0,79,0.00,,,0.00,0,weatherlink.com 1.10,2013-02-21 11:40:00,
2013-02-21 06:55:00,56.8,50.0,30.08,NNE,27,0.0,2.0,79,0.00,,,0.00,0,weatherlink.com 1.10,2013-02-21 11:55:00,
2013-02-21 07:10:00,56.7,50.0,30.10,NNE,27,0.0,2.0,79,0.00,,,0.00,12,weatherlink.com 1.10,2013-02-21 12:10:00,
2013-02-21 07:25:00,56.8,50.0,30.10,North,10,0.0,3.0,79,0.00,,,0.00,28,weatherlink.com 1.10,2013-02-21 12:25:00,
2013-02-21 07:40:00,57.2,51.0,30.11,North,9,0.0,2.0,79,0.00,,,0.00,35,weatherlink.com 1.10,2013-02-21 12:40:00,
2013-02-21 07:55:00,57.7,51.0,30.12,North,9,0.0,1.0,79,0.00,,,0.00,74,weatherlink.com 1.10,2013-02-21 12:55:00,
2013-02-21 08:10:00,58.4,52.0,30.12,NNE,14,0.0,3.0,78,0.00,,,0.00,69,weatherlink.com 1.10,2013-02-21 13:10:00,
2013-02-21 08:25:00,59.0,52.0,30.12,ENE,71,0.0,3.0,77,0.00,,,0.00,76,weatherlink.com 1.10,2013-02-21 13:25:00,
2013-02-21 08:40:00,60.1,53.0,30.12,ENE,67,0.0,2.0,76,0.00,,,0.00,185,weatherlink.com 1.10,2013-02-21 13:40:00,
2013-02-21 08:55:00,62.1,54.0,30.13,NE,54,0.0,3.0,74,0.00,,,0.00,353,weatherlink.com 1.10,2013-02-21 13:55:00,
2013-02-21 09:10:00,64.4,55.0,30.13,East,96,1.0,4.0,71,0.00,,,0.00,411,weatherlink.com 1.10,2013-02-21 14:10:00,
2013-02-21 09:25:00,66.0,56.0,30.13,ESE,118,1.0,5.0,69,0.00,,,0.00,388,weatherlink.com 1.10,2013-02-21 14:25:00,
2013-02-21 09:41:00,67.8,56.0,30.13,East,96,2.0,4.0,67,0.00,,,0.00,504,weatherlink.com 1.10,2013-02-21 14:41:00,
2013-02-21 09:56:00,69.0,58.0,30.13,NE,38,1.0,3.0,69,0.00,,,0.00,512,weatherlink.com 1.10,2013-02-21 14:56:00,
2013-02-21 10:11:00,71.0,59.0,30.13,SE,125,1.0,5.0,67,0.00,,,0.00,573,weatherlink.com 1.10,2013-02-21 15:11:00,
2013-02-21 10:26:00,72.0,60.0,30.13,East,101,1.0,5.0,67,0.00,,,0.00,601,weatherlink.com 1.10,2013-02-21 15:26:00,
2013-02-21 10:41:00,72.9,61.0,30.12,SE,129,3.0,5.0,66,0.00,,,0.00,635,weatherlink.com 1.10,2013-02-21 15:41:00,
2013-02-21 10:56:00,73.3,62.0,30.12,SSE,157,2.0,5.0,68,0.00,,,0.00,668,weatherlink.com 1.10,2013-02-21 15:56:00,
2013-02-21 11:11:00,74.1,62.0,30.12,SSW,207,1.0,6.0,66,0.00,,,0.00,687,weatherlink.com 1.10,2013-02-21 16:11:00,
2013-02-21 11:26:00,74.3,63.0,30.11,South,182,2.0,7.0,67,0.00,,,0.00,712,weatherlink.com 1.10,2013-02-21 16:26:00,
2013-02-21 11:41:00,75.1,64.0,30.11,ESE,114,5.0,7.0,68,0.00,,,0.00,729,weatherlink.com 1.10,2013-02-21 16:41:00,
2013-02-21 11:56:00,75.9,63.0,30.10,South,179,1.0,5.0,65,0.00,,,0.00,751,weatherlink.com 1.10,2013-02-21 16:56:00,
2013-02-21 12:11:00,76.9,64.0,30.09,ESE,122,4.0,4.0,64,0.00,,,0.00,784,weatherlink.com 1.10,2013-02-21 17:11:00,
2013-02-21 12:26:00,77.1,63.0,30.09,SE,125,1.0,6.0,63,0.00,,,0.00,772,weatherlink.com 1.10,2013-02-21 17:26:00,
2013-02-21 12:41:00,77.4,64.0,30.07,South,191,3.0,10.0,63,0.00,,,0.00,752,weatherlink.com 1.10,2013-02-21 17:41:00,
2013-02-21 12:56:00,77.9,64.0,30.07,SSW,194,5.0,9.0,62,0.00,,,0.00,775,weatherlink.com 1.10,2013-02-21 17:56:00,
2013-02-21 13:11:00,78.5,64.0,30.06,SSW,204,3.0,10.0,61,0.00,,,0.00,751,weatherlink.com 1.10,2013-02-21 18:11:00,
2013-02-21 13:26:00,79.1,63.0,30.05,SSW,209,3.0,9.0,58,0.00,,,0.00,733,weatherlink.com 1.10,2013-02-21 18:26:00,
2013-02-21 13:41:00,79.8,62.0,30.05,SSW,195,7.0,7.0,55,0.00,,,0.00,689,weatherlink.com 1.10,2013-02-21 18:41:00,
2013-02-21 13:56:00,80.1,62.0,30.04,SE,145,1.0,6.0,54,0.00,,,0.00,700,weatherlink.com 1.10,2013-02-21 18:56:00,
2013-02-21 14:11:00,80.3,62.0,30.03,SE,134,4.0,7.0,54,0.00,,,0.00,696,weatherlink.com 1.10,2013-02-21 19:11:00,
2013-02-21 14:27:00,80.5,63.0,30.03,SSE,151,1.0,7.0,56,0.00,,,0.00,680,weatherlink.com 1.10,2013-02-21 19:27:00,
2013-02-21 14:42:00,81.2,62.0,30.02,ESE,122,4.0,7.0,53,0.00,,,0.00,649,weatherlink.com 1.10,2013-02-21 19:42:00,
2013-02-21 14:57:00,80.8,63.0,30.02,WSW,240,5.0,7.0,55,0.00,,,0.00,566,weatherlink.com 1.10,2013-02-21 19:57:00,
2013-02-21 15:12:00,81.1,62.0,30.01,SE,132,2.0,7.0,53,0.00,,,0.00,531,weatherlink.com 1.10,2013-02-21 20:12:00,
2013-02-21 15:27:00,80.8,62.0,30.01,SE,136,0.0,5.0,53,0.00,,,0.00,489,weatherlink.com 1.10,2013-02-21 20:27:00,
2013-02-21 15:42:00,81.3,62.0,30.00,SE,125,3.0,6.0,52,0.00,,,0.00,450,weatherlink.com 1.10,2013-02-21 20:42:00,
2013-02-21 15:57:00,80.9,62.0,30.00,SSE,153,1.0,7.0,53,0.00,,,0.00,417,weatherlink.com 1.10,2013-02-21 20:57:00,
2013-02-21 16:12:00,81.0,62.0,30.01,ESE,122,2.0,6.0,53,0.00,,,0.00,320,weatherlink.com 1.10,2013-02-21 21:12:00,
2013-02-21 16:27:00,81.2,62.0,30.01,ESE,123,1.0,6.0,52,0.00,,,0.00,350,weatherlink.com 1.10,2013-02-21 21:27:00,
2013-02-21 16:42:00,81.4,62.0,30.00,SW,232,1.0,6.0,52,0.00,,,0.00,257,weatherlink.com 1.10,2013-02-21 21:42:00,
2013-02-21 16:57:00,80.5,62.0,30.00,SW,223,3.0,6.0,53,0.00,,,0.00,109,weatherlink.com 1.10,2013-02-21 21:57:00,
2013-02-21 17:12:00,79.3,62.0,30.00,SW,215,0.0,5.0,55,0.00,,,0.00,63,weatherlink.com 1.10,2013-02-21 22:12:00,
2013-02-21 17:27:00,78.5,62.0,30.00,SSW,202,1.0,3.0,57,0.00,,,0.00,58,weatherlink.com 1.10,2013-02-21 22:27:00,
2013-02-21 17:42:00,78.0,62.0,30.00,SSW,202,0.0,1.0,59,0.00,,,0.00,49,weatherlink.com 1.10,2013-02-21 22:42:00,
2013-02-21 17:57:00,77.0,64.0,30.00,East,87,2.0,6.0,65,0.00,,,0.00,12,weatherlink.com 1.10,2013-02-21 22:57:00,
2013-02-21 18:12:00,74.4,65.0,30.01,NE,45,2.0,7.0,72,0.00,,,0.00,5,weatherlink.com 1.10,2013-02-21 23:12:00,
2013-02-21 18:27:00,73.0,65.0,30.01,East,85,1.0,7.0,75,0.00,,,0.00,0,weatherlink.com 1.10,2013-02-21 23:27:00,
2013-02-21 18:42:00,72.2,65.0,30.01,East,91,0.0,6.0,77,0.00,,,0.00,0,weatherlink.com 1.10,2013-02-21 23:42:00,
2013-02-21 18:57:00,71.6,65.0,30.01,NE,37,0.0,5.0,79,0.00,,,0.00,0,weatherlink.com 1.10,2013-02-21 23:57:00,
2013-02-21 19:12:00,70.9,64.0,30.02,East,101,2.0,6.0,80,0.00,,,0.00,0,weatherlink.com 1.10,2013-02-22 00:12:00,
2013-02-21 19:27:00,70.3,65.0,30.03,NNE,30,3.0,6.0,82,0.00,,,0.00,0,weatherlink.com 1.10,2013-02-22 00:27:00,
2013-02-21 19:42:00,69.9,65.0,30.03,ENE,63,1.0,6.0,83,0.00,,,0.00,0,weatherlink.com 1.10,2013-02-22 00:42:00,
2013-02-21 19:57:00,69.4,64.0,30.03,East,96,1.0,8.0,83,0.00,,,0.00,0,weatherlink.com 1.10,2013-02-22 00:57:00,
2013-02-21 20:12:00,68.7,64.0,30.03,NNE,33,2.0,6.0,84,0.00,,,0.00,0,weatherlink.com 1.10,2013-02-22 01:12:00,
2013-02-21 20:27:00,68.1,64.0,30.03,East,101,2.0,4.0,85,0.00,,,0.00,0,weatherlink.com 1.10,2013-02-22 01:27:00,
2013-02-21 20:42:00,67.7,63.0,30.03,NNW,344,1.0,5.0,86,0.00,,,0.00,0,weatherlink.com 1.10,2013-02-22 01:42:00,
2013-02-21 20:57:00,67.2,63.0,30.03,ENE,74,1.0,6.0,87,0.00,,,0.00,0,weatherlink.com 1.10,2013-02-22 01:57:00,
2013-02-21 21:12:00,67.0,63.0,30.03,ENE,70,2.0,5.0,88,0.00,,,0.00,0,weatherlink.com 1.10,2013-02-22 02:12:00,
2013-02-21 21:27:00,66.8,64.0,30.03,ESE,120,1.0,4.0,89,0.00,,,0.00,0,weatherlink.com 1.10,2013-02-22 02:27:00,
2013-02-21 21:42:00,66.6,63.0,30.03,NE,35,0.0,3.0,89,0.00,,,0.00,0,weatherlink.com 1.10,2013-02-22 02:42:00,
2013-02-21 21:57:00,66.5,64.0,30.04,East,91,3.0,4.0,90,0.00,,,0.00,0,weatherlink.com 1.10,2013-02-22 02:57:00,
2013-02-21 22:12:00,66.7,64.0,30.04,ESE,117,0.0,3.0,90,0.00,,,0.00,0,weatherlink.com 1.10,2013-02-22 03:12:00,
2013-02-21 22:27:00,67.5,64.0,30.05,SW,234,4.0,6.0,89,0.00,,,0.00,0,weatherlink.com 1.10,2013-02-22 03:27:00,
2013-02-21 22:42:00,67.2,64.0,30.06,South,169,0.0,1.0,89,0.00,,,0.00,0,weatherlink.com 1.10,2013-02-22 03:42:00,
2013-02-21 22:57:00,66.7,64.0,30.05,South,169,0.0,0.0,90,0.00,,,0.00,0,weatherlink.com 1.10,2013-02-22 03:57:00,
2013-02-21 23:12:00,66.0,63.0,30.05,South,169,0.0,0.0,90,0.00,,,0.00,0,weatherlink.com 1.10,2013-02-22 04:12:00,
2013-02-21 23:27:00,65.5,63.0,30.05,South,169,0.0,0.0,92,0.00,,,0.00,0,weatherlink.com 1.10,2013-02-22 04:27:00,
2013-02-21 23:42:00,65.0,63.0,30.05,South,169,0.0,0.0,93,0.00,,,0.00,0,weatherlink.com 1.10,2013-02-22 04:42:00,
2013-02-21 23:57:00,64.6,63.0,30.05,South,169,0.0,0.0,93,0.00,,,0.00,0,weatherlink.com 1.10,2013-02-22 04:57:00,